Time;durP1;ratioP1;P1;durP2;ratioP2;P2;SDS_P1;SDS_P2;PMS_P1;PMS_P2;Temp;Humidity;BMP_temperature;BMP_pressure;BME280_temperature;BME280_humidity;BME280_pressure;Samples;Min_cycle;Max_cycle;Signal;HPM_P1;HPM_P2
2022/09/25 00:00:47;;;;;;;9.75;3.42;;;;;;;19.28;54.00;97828.59;4457131;32;20141;-81
2022/09/25 00:03:15;;;;;;;9.25;3.62;;;;;;;17.98;58.40;97822.34;4442605;32;20105;-81
2022/09/25 00:05:44;;;;;;;9.55;3.70;;;;;;;18.63;56.59;97818.16;4456754;32;20108;-81
2022/09/25 00:08:12;;;;;;;8.70;3.90;;;;;;;17.67;61.11;97809.91;4456968;32;20411;-81
2022/09/25 00:10:42;;;;;;;11.45;4.10;;;;;;;17.81;60.08;97802.72;4456593;32;20088;-80
2022/09/25 00:13:10;;;;;;;11.40;3.87;;;;;;;17.96;59.66;97800.72;4457034;32;20105;-80
2022/09/25 00:15:37;;;;;;;9.82;4.00;;;;;;;15.33;71.78;97803.75;4456409;32;20161;-80
2022/09/25 00:18:04;;;;;;;10.23;4.20;;;;;;;16.49;67.74;97808.88;4457000;32;20104;-80
2022/09/25 00:20:31;;;;;;;9.13;4.00;;;;;;;14.84;75.26;97811.28;4456864;32;20167;-80
2022/09/25 00:23:00;;;;;;;8.50;4.05;;;;;;;15.65;73.64;97813.84;4442551;32;20101;-80
2022/09/25 00:25:27;;;;;;;10.80;4.37;;;;;;;15.57;73.19;97803.91;4456812;32;20094;-80
2022/09/25 00:27:54;;;;;;;8.60;3.90;;;;;;;15.81;71.66;97811.84;4456855;32;20077;-81
2022/09/25 00:30:22;;;;;;;8.57;3.85;;;;;;;16.67;68.61;97804.13;4456280;32;20097;-81
2022/09/25 00:32:49;;;;;;;9.50;4.10;;;;;;;17.59;64.19;97806.09;4456566;32;20111;-81
2022/09/25 00:35:16;;;;;;;10.32;3.80;;;;;;;17.62;64.32;97798.03;4456740;32;20128;-81
2022/09/25 00:37:43;;;;;;;9.68;4.10;;;;;;;17.26;65.42;97799.00;4457615;32;20078;-80
2022/09/25 00:40:10;;;;;;;9.40;3.75;;;;;;;18.00;62.68;97802.16;4456783;32;20128;-80
2022/09/25 00:42:37;;;;;;;9.52;4.07;;;;;;;19.32;57.32;97803.00;4442793;32;20505;-81
2022/09/25 00:45:06;;;;;;;10.30;4.10;;;;;;;19.34;56.57;97804.53;4442291;32;20108;-81
2022/09/25 00:47:42;;;;;;;9.35;3.50;;;;;;;19.87;54.37;97804.50;4456677;32;20072;-81
2022/09/25 00:50:21;;;;;;;8.60;3.77;;;;;;;20.39;52.56;97814.94;4456756;32;20111;-80
2022/09/25 00:52:50;;;;;;;10.15;3.62;;;;;;;19.83;54.24;97803.09;4456613;32;20092;-80
2022/09/25 00:55:17;;;;;;;7.93;3.37;;;;;;;19.20;56.15;97804.00;4456387;32;20108;-81
2022/09/25 00:57:47;;;;;;;10.02;4.18;;;;;;;18.66;57.89;97804.88;4456404;32;20115;-81
2022/09/25 01:00:14;;;;;;;9.95;3.83;;;;;;;18.85;57.64;97804.25;4456546;32;20089;-81
2022/09/25 01:02:44;;;;;;;10.30;4.20;;;;;;;18.89;57.72;97801.25;4456552;32;20089;-81
2022/09/25 01:05:15;;;;;;;9.00;3.78;;;;;;;18.98;57.27;97803.12;4456123;32;20173;-81
2022/09/25 01:07:45;;;;;;;8.60;4.00;;;;;;;18.96;57.61;97794.59;4442620;32;20442;-81
2022/09/25 01:10:13;;;;;;;12.05;4.00;;;;;;;19.29;56.61;97787.56;4456576;32;20110;-81
2022/09/25 01:12:42;;;;;;;9.68;3.92;;;;;;;19.60;55.29;97786.72;4456200;32;20097;-81
2022/09/25 01:15:11;;;;;;;7.70;3.37;;;;;;;19.65;54.95;97783.69;4442433;32;20097;-81
2022/09/25 01:18:01;;;;;;;10.48;4.07;;;;;;;18.71;57.28;97785.25;4456602;32;20546;-81
2022/09/25 01:20:45;;;;;;;7.40;3.83;;;;;;;19.11;56.33;97782.03;4442244;32;20093;-81
2022/09/25 01:23:25;;;;;;;9.32;3.90;;;;;;;19.34;55.47;97785.38;4442587;32;20113;-81
2022/09/25 01:26:15;;;;;;;10.40;4.05;;;;;;;19.25;55.47;97781.75;4442047;32;20092;-81
2022/09/25 01:29:06;;;;;;;8.98;3.90;;;;;;;18.78;57.03;97775.97;4442461;32;20431;-81
2022/09/25 01:31:46;;;;;;;9.00;4.18;;;;;;;19.18;55.87;97777.97;4442602;32;20167;-81
2022/09/25 01:34:26;;;;;;;8.90;3.85;;;;;;;19.56;54.66;97779.22;4455793;32;20186;-81
2022/09/25 01:37:14;;;;;;;10.60;3.90;;;;;;;20.00;52.81;97785.16;4442480;32;20081;-81
2022/09/25 01:39:45;;;;;;;9.80;4.50;;;;;;;19.54;54.13;97783.72;4442245;32;20150;-81
2022/09/25 01:42:22;;;;;;;8.00;3.70;;;;;;;20.04;52.47;97783.91;4455591;32;20455;-81
2022/09/25 01:44:55;;;;;;;8.73;3.78;;;;;;;19.73;53.63;97783.06;4442331;32;20109;-81
2022/09/25 01:47:26;;;;;;;9.25;4.12;;;;;;;20.01;53.15;97790.25;4442174;32;20097;-81
2022/09/25 01:50:03;;;;;;;9.27;4.10;;;;;;;19.74;53.95;97782.09;4442528;32;20069;-81
2022/09/25 01:52:36;;;;;;;10.30;3.97;;;;;;;19.75;54.22;97779.34;4442350;32;20158;-81
2022/09/25 01:55:23;;;;;;;12.00;3.90;;;;;;;19.57;54.88;97780.91;4441845;32;20093;-81
2022/09/25 01:57:55;;;;;;;8.07;3.87;;;;;;;19.70;54.60;97773.69;4456322;32;20093;-81
2022/09/25 02:00:22;;;;;;;8.10;3.30;;;;;;;20.05;53.60;97785.56;4442443;32;20168;-81
2022/09/25 02:03:20;;;;;;;11.93;3.60;;;;;;;20.18;53.39;97778.31;4455870;32;20101;-81
2022/09/25 02:05:56;;;;;;;7.33;3.20;;;;;;;19.61;54.99;97774.47;4453721;32;20092;-81
2022/09/25 02:08:31;;;;;;;7.68;3.33;;;;;;;19.91;54.10;97778.91;4455861;32;20084;-81
2022/09/25 02:11:01;;;;;;;8.52;3.75;;;;;;;19.68;55.19;97777.41;4442204;32;20089;-81
2022/09/25 02:13:38;;;;;;;8.75;3.50;;;;;;;19.60;54.48;97772.81;4456095;32;20101;-81
2022/09/25 02:16:09;;;;;;;9.13;3.40;;;;;;;19.58;54.82;97782.56;4441809;32;20124;-81
2022/09/25 02:21:46;;;;;;;8.68;3.40;;;;;;;19.26;55.33;97774.75;4456151;32;20076;-80
2022/09/25 02:24:19;;;;;;;7.85;3.40;;;;;;;18.97;56.54;97774.50;4456044;32;20101;-81
2022/09/25 02:26:47;;;;;;;8.90;3.40;;;;;;;18.83;56.64;97769.56;4442012;32;20505;-81
2022/09/25 02:29:14;;;;;;;9.52;3.50;;;;;;;19.36;55.69;97763.41;4455704;32;20099;-80
2022/09/25 02:31:49;;;;;;;8.75;4.07;;;;;;;18.59;58.03;97767.06;4455745;32;20081;-80
2022/09/25 02:34:16;;;;;;;10.18;3.95;;;;;;;16.73;62.41;97762.03;4455648;32;20109;-80
2022/09/25 02:36:43;;;;;;;10.02;3.90;;;;;;;16.27;64.61;97761.00;4455532;32;20167;-80
2022/09/25 02:39:13;;;;;;;9.23;3.78;;;;;;;15.78;67.63;97760.03;4442015;32;20088;-80
2022/09/25 02:41:48;;;;;;;8.57;4.20;;;;;;;14.74;73.35;97755.66;4456041;32;20132;-80
2022/09/25 02:44:38;;;;;;;8.23;3.28;;;;;;;15.51;71.39;97764.47;4455296;32;20097;-80
2022/09/25 02:47:17;;;;;;;7.40;2.78;;;;;;;16.23;70.02;97768.19;4444281;32;20460;-80
2022/09/25 02:50:11;;;;;;;8.07;2.78;;;;;;;17.51;67.12;97769.31;4457281;32;20138;-80
2022/09/25 02:52:45;;;;;;;5.18;2.60;;;;;;;17.64;67.11;97762.22;4456783;32;20489;-80
2022/09/25 02:55:30;;;;;;;11.12;3.03;;;;;;;17.70;66.92;97762.75;4441914;32;20100;-80
2022/09/25 02:58:08;;;;;;;7.40;2.60;;;;;;;17.80;66.52;97764.53;4456736;32;20110;-80
2022/09/25 03:00:36;;;;;;;8.57;2.83;;;;;;;17.67;67.44;97768.16;4444337;32;20065;-80
2022/09/25 03:03:06;;;;;;;8.63;3.20;;;;;;;17.52;67.66;97775.34;4442431;32;20085;-80
2022/09/25 03:05:34;;;;;;;8.10;2.60;;;;;;;17.92;66.32;97775.81;4456891;32;20097;-81
2022/09/25 03:10:47;;;;;;;7.95;2.95;;;;;;;18.16;65.09;97778.28;4445582;32;20089;-80
2022/09/25 03:13:33;;;;;;;7.55;2.80;;;;;;;17.73;66.52;97765.09;4458007;32;20104;-81
2022/09/25 03:16:05;;;;;;;6.70;2.40;;;;;;;17.86;66.34;97771.03;4457993;32;20073;-81
2022/09/25 03:18:33;;;;;;;7.03;2.70;;;;;;;17.62;66.87;97779.75;4457560;32;20157;-80
2022/09/25 03:21:00;;;;;;;8.00;3.00;;;;;;;17.69;67.24;97776.69;4457768;32;20100;-81
2022/09/25 03:23:27;;;;;;;6.90;2.70;;;;;;;17.90;66.34;97775.09;4445666;32;20089;-80
2022/09/25 03:25:54;;;;;;;6.47;2.60;;;;;;;17.51;67.26;97779.75;4457454;32;20116;-80
2022/09/25 03:28:21;;;;;;;7.32;3.08;;;;;;;17.91;66.03;97774.16;4458517;32;20092;-81
2022/09/25 03:30:57;;;;;;;6.47;2.70;;;;;;;17.82;66.11;97772.25;4459286;32;20107;-81
2022/09/25 03:33:25;;;;;;;5.60;2.22;;;;;;;17.71;66.28;97770.44;4458012;32;20151;-80
2022/09/25 03:36:10;;;;;;;7.35;2.70;;;;;;;17.83;65.84;97766.06;4460165;32;20105;-81
2022/09/25 03:38:40;;;;;;;6.82;2.60;;;;;;;17.45;66.92;97766.34;4459062;32;20124;-81
2022/09/25 03:41:08;;;;;;;6.35;2.30;;;;;;;17.72;66.37;97760.84;4458877;32;20103;-81
2022/09/25 03:43:36;;;;;;;5.93;2.58;;;;;;;17.57;66.70;97753.22;4460141;32;20080;-81
2022/09/25 03:46:04;;;;;;;5.80;2.20;;;;;;;17.53;66.46;97758.75;4453214;32;141386;-81
2022/09/25 03:48:32;;;;;;;6.45;2.50;;;;;;;18.14;64.14;97754.09;4457143;32;20115;-80
2022/09/25 03:51:00;;;;;;;6.95;2.70;;;;;;;18.10;63.95;97747.47;4457165;32;20084;-81
2022/09/25 03:53:30;;;;;;;5.00;2.03;;;;;;;18.15;63.50;97747.91;4456997;32;20077;-81
2022/09/25 03:55:57;;;;;;;9.55;2.72;;;;;;;18.27;63.04;97743.50;4442321;32;20105;-80
2022/09/25 03:58:24;;;;;;;5.62;2.20;;;;;;;18.14;63.12;97752.31;4456577;32;20111;-81
2022/09/25 04:00:54;;;;;;;4.15;2.00;;;;;;;18.42;61.88;97758.00;4456862;32;20154;-81
2022/09/25 04:03:27;;;;;;;8.63;2.10;;;;;;;17.92;63.10;97758.38;4457328;32;20089;-80
2022/09/25 04:05:56;;;;;;;5.10;2.17;;;;;;;18.13;62.78;97757.66;4457489;32;20119;-80
2022/09/25 04:08:25;;;;;;;6.70;2.40;;;;;;;18.20;62.27;97751.00;4458964;32;20131;-80
2022/09/25 04:10:55;;;;;;;5.12;2.20;;;;;;;18.19;61.90;97746.75;4458914;32;20089;-81
2022/09/25 04:13:28;;;;;;;4.03;2.00;;;;;;;17.84;62.99;97750.28;4459032;32;20081;-81
2022/09/25 04:15:56;;;;;;;4.78;2.22;;;;;;;17.88;62.76;97756.94;4458946;32;20234;-80
2022/09/25 04:18:24;;;;;;;5.75;2.40;;;;;;;18.32;61.03;97757.06;4459316;32;20428;-81
2022/09/25 04:20:51;;;;;;;5.87;2.58;;;;;;;17.73;62.77;97763.31;4445133;32;20444;-81
2022/09/25 04:23:18;;;;;;;4.68;2.15;;;;;;;17.88;62.47;97759.56;4459637;32;20443;-81
2022/09/25 04:25:50;;;;;;;5.53;2.10;;;;;;;18.09;61.61;97754.47;4460623;32;20483;-80
2022/09/25 04:28:17;;;;;;;7.75;2.45;;;;;;;17.79;62.21;97751.59;4446275;32;20077;-81
2022/09/25 04:30:44;;;;;;;4.80;2.10;;;;;;;18.04;61.47;97755.75;4459912;32;20103;-81
2022/09/25 04:35:56;;;;;;;4.72;2.03;;;;;;;17.59;62.55;97758.31;4459731;32;20112;-80
2022/09/25 04:38:23;;;;;;;5.70;2.00;;;;;;;17.87;61.97;97752.69;4445413;32;20084;-81
2022/09/25 04:40:50;;;;;;;5.53;2.30;;;;;;;18.18;60.63;97751.13;4444929;32;20146;-81
2022/09/25 04:43:17;;;;;;;5.85;2.20;;;;;;;18.06;60.71;97746.00;4445057;32;20085;-81
2022/09/25 04:45:46;;;;;;;6.05;2.08;;;;;;;17.79;61.28;97754.22;4459068;32;20143;-81
2022/09/25 04:48:13;;;;;;;3.97;2.05;;;;;;;17.80;61.60;97751.47;4459700;32;20148;-81
2022/09/25 04:50:47;;;;;;;4.55;2.12;;;;;;;18.18;59.37;97750.28;4460371;32;20080;-81
2022/09/25 04:53:15;;;;;;;6.90;2.30;;;;;;;17.97;59.85;97744.97;4460259;32;20088;-81
2022/09/25 04:55:42;;;;;;;5.03;2.20;;;;;;;17.79;60.89;97749.81;4460096;32;20105;-80
2022/09/25 04:58:09;;;;;;;6.18;2.03;;;;;;;17.89;60.47;97745.56;4459666;32;20109;-81
2022/09/25 05:00:37;;;;;;;5.32;1.90;;;;;;;17.74;60.56;97751.09;4460785;32;20053;-81
2022/09/25 05:03:04;;;;;;;6.30;2.20;;;;;;;17.99;59.53;97758.72;4460000;32;20073;-80
2022/09/25 05:05:32;;;;;;;4.80;1.92;;;;;;;18.07;59.38;97761.56;4461180;32;20057;-80
2022/09/25 05:08:00;;;;;;;3.83;1.90;;;;;;;17.99;59.86;97758.72;4459583;32;20153;-80
2022/09/25 05:10:30;;;;;;;5.15;2.30;;;;;;;18.47;58.36;97763.66;4459472;32;20076;-80
2022/09/25 05:12:59;;;;;;;6.10;2.22;;;;;;;18.85;56.94;97768.47;4460361;32;20060;-81
2022/09/25 05:15:30;;;;;;;7.43;2.00;;;;;;;18.57;57.90;97761.16;4460357;32;20413;-80
2022/09/25 05:18:06;;;;;;;5.15;1.75;;;;;;;18.20;58.28;97761.47;4459075;32;20150;-81
2022/09/25 05:20:36;;;;;;;6.65;2.10;;;;;;;18.73;57.22;97772.91;4460044;32;20080;-80
2022/09/25 05:23:03;;;;;;;5.00;1.85;;;;;;;18.85;56.74;97772.88;4460228;32;20057;-81
2022/09/25 05:25:31;;;;;;;5.30;2.03;;;;;;;18.63;56.57;97766.72;4460582;32;20111;-80
2022/09/25 05:27:58;;;;;;;4.90;2.05;;;;;;;18.67;56.56;97776.00;4461595;32;20703;-81
2022/09/25 05:30:32;;;;;;;3.28;1.60;;;;;;;18.26;57.94;97784.47;4461922;32;20081;-80
2022/09/25 05:32:59;;;;;;;3.37;1.60;;;;;;;18.03;58.62;97781.03;4461022;32;20088;-80
2022/09/25 05:35:28;;;;;;;3.90;1.70;;;;;;;18.62;56.99;97779.94;4461195;32;20154;-81
2022/09/25 05:37:55;;;;;;;4.43;1.73;;;;;;;18.63;56.78;97786.81;4462108;32;20093;-81
2022/09/25 05:40:22;;;;;;;3.72;1.70;;;;;;;18.62;56.63;97793.81;4460905;32;20081;-80
2022/09/25 05:42:50;;;;;;;5.32;1.90;;;;;;;18.70;56.43;97807.13;4460527;32;20099;-81
2022/09/25 05:45:20;;;;;;;4.82;2.00;;;;;;;18.71;56.48;97797.50;4460804;32;20106;-81
2022/09/25 05:47:47;;;;;;;4.43;1.87;;;;;;;18.76;55.91;97798.78;4460994;32;20149;-80
2022/09/25 05:50:15;;;;;;;3.62;1.70;;;;;;;18.53;56.77;97794.53;4462052;32;20085;-81
2022/09/25 05:52:42;;;;;;;6.53;1.80;;;;;;;18.64;55.96;97791.94;4462402;32;20102;-80
2022/09/25 05:55:09;;;;;;;2.90;1.55;;;;;;;18.33;56.50;97801.31;4462669;32;20109;-80
2022/09/25 05:57:37;;;;;;;4.57;1.70;;;;;;;17.78;58.90;97789.91;4463176;32;20089;-80
2022/09/25 06:00:08;;;;;;;4.00;1.80;;;;;;;17.97;58.20;97794.56;4462749;32;20076;-80
2022/09/25 06:02:35;;;;;;;4.10;1.70;;;;;;;17.76;59.72;97796.22;4463088;32;20097;-81
2022/09/25 06:05:03;;;;;;;3.35;1.52;;;;;;;17.52;60.72;97797.06;4463382;32;20197;-81
2022/09/25 06:07:29;;;;;;;6.20;1.80;;;;;;;17.47;60.69;97801.78;4461909;32;20097;-80
2022/09/25 06:09:56;;;;;;;9.90;2.33;;;;;;;17.64;60.70;97805.72;4463578;32;20095;-81
2022/09/25 06:12:23;;;;;;;4.07;1.58;;;;;;;17.26;62.97;97809.44;4463456;32;20062;-81
2022/09/25 06:14:52;;;;;;;3.42;1.70;;;;;;;17.61;62.35;97804.19;4463425;32;20110;-81
2022/09/25 06:17:19;;;;;;;4.87;2.00;;;;;;;17.48;62.33;97807.84;4464364;32;20369;-81
2022/09/25 06:19:46;;;;;;;4.95;2.03;;;;;;;17.58;62.11;97814.03;4464709;32;20796;-80
2022/09/25 06:22:13;;;;;;;3.60;1.40;;;;;;;17.39;62.76;97809.34;4463106;32;20081;-80
2022/09/25 06:24:41;;;;;;;4.28;1.90;;;;;;;17.61;61.87;97805.97;4463668;32;20702;-80
2022/09/25 06:27:08;;;;;;;4.68;2.28;;;;;;;17.12;63.68;97809.62;4463612;32;20093;-80
2022/09/25 06:29:35;;;;;;;3.67;1.70;;;;;;;17.77;61.60;97816.13;4463003;32;20084;-81
2022/09/25 06:32:02;;;;;;;2.92;1.48;;;;;;;17.51;62.42;97812.81;4464821;32;20076;-81
2022/09/25 06:34:30;;;;;;;3.22;1.50;;;;;;;17.66;62.07;97809.09;4463044;32;20057;-80
2022/09/25 06:36:59;;;;;;;4.12;1.50;;;;;;;17.46;62.90;97810.56;4462849;32;20127;-81
2022/09/25 06:39:26;;;;;;;2.50;1.50;;;;;;;18.06;60.55;97809.50;4463052;32;20061;-81
2022/09/25 06:41:53;;;;;;;3.30;1.65;;;;;;;17.61;61.17;97806.81;4463681;32;20083;-81
2022/09/25 06:44:21;;;;;;;4.12;1.67;;;;;;;17.50;61.94;97811.16;4464328;32;20073;-80
2022/09/25 06:46:49;;;;;;;4.32;1.80;;;;;;;17.76;60.46;97809.25;4463814;32;20508;-80
2022/09/25 06:49:16;;;;;;;3.85;1.60;;;;;;;17.93;60.38;97816.62;4462017;32;20057;-81
2022/09/25 06:51:43;;;;;;;4.72;1.58;;;;;;;18.23;59.56;97810.00;4462883;32;20061;-80
2022/09/25 06:54:16;;;;;;;5.30;1.70;;;;;;;18.39;58.47;97816.50;4462285;32;20074;-80
2022/09/25 06:56:47;;;;;;;5.87;1.70;;;;;;;18.17;58.67;97808.69;4463688;32;20093;-80
2022/09/25 06:59:14;;;;;;;5.15;1.92;;;;;;;18.53;57.71;97806.78;4464440;32;20076;-80
2022/09/25 07:01:41;;;;;;;3.47;1.60;;;;;;;18.15;58.76;97814.03;4463475;32;20081;-80
2022/09/25 07:04:10;;;;;;;4.43;1.58;;;;;;;18.29;58.13;97806.87;4448305;32;20103;-80
2022/09/25 07:06:37;;;;;;;2.35;1.42;;;;;;;18.40;57.84;97812.13;4447627;32;20177;-80
2022/09/25 07:09:04;;;;;;;3.45;1.65;;;;;;;18.11;58.72;97810.00;4460207;32;20099;-80
2022/09/25 07:11:31;;;;;;;4.53;1.60;;;;;;;17.89;59.03;97809.97;4458453;32;20077;-80
2022/09/25 07:13:57;;;;;;;4.53;1.65;;;;;;;18.05;59.75;97812.22;4462068;32;20108;-80
2022/09/25 07:16:29;;;;;;;3.30;1.70;;;;;;;18.06;59.49;97806.06;4462389;32;20065;-80
2022/09/25 07:19:01;;;;;;;3.20;1.60;;;;;;;17.89;59.29;97802.16;4463955;32;20103;-80
2022/09/25 07:21:30;;;;;;;3.00;1.50;;;;;;;17.43;61.14;97792.50;4449709;32;20106;-80
2022/09/25 07:24:10;;;;;;;4.87;1.77;;;;;;;17.26;61.78;97803.38;4462840;32;20096;-80
2022/09/25 07:26:39;;;;;;;3.97;1.60;;;;;;;17.41;61.65;97798.78;4461742;32;20109;-80
2022/09/25 07:29:09;;;;;;;3.67;1.67;;;;;;;17.80;60.70;97795.84;4461494;32;20109;-80
2022/09/25 07:31:36;;;;;;;2.78;1.40;;;;;;;17.74;61.17;97791.06;4463691;32;20134;-80
2022/09/25 07:34:11;;;;;;;4.65;1.58;;;;;;;17.51;61.59;97794.56;4465983;32;20073;-80
2022/09/25 07:36:40;;;;;;;3.70;1.70;;;;;;;17.49;61.99;97802.50;4464598;32;20136;-80
2022/09/25 07:39:07;;;;;;;4.05;1.50;;;;;;;17.59;61.92;97797.44;4462212;32;20061;-80
2022/09/25 07:41:35;;;;;;;3.42;1.48;;;;;;;17.78;61.84;97802.12;4468965;32;20096;-80
2022/09/25 07:44:04;;;;;;;4.03;1.60;;;;;;;17.89;61.76;97797.75;4463709;32;20143;-81
2022/09/25 07:46:51;;;;;;;6.80;1.60;;;;;;;17.85;61.26;97798.09;4454157;32;20121;-80
2022/09/25 07:49:18;;;;;;;3.40;1.60;;;;;;;17.40;63.26;97805.78;4465853;32;20076;-80
2022/09/25 07:51:45;;;;;;;2.75;1.45;;;;;;;17.86;62.50;97808.44;4466314;32;20084;-80
2022/09/25 07:54:12;;;;;;;4.30;1.77;;;;;;;18.17;61.38;97811.28;4469879;32;20081;-80
2022/09/25 07:56:39;;;;;;;4.20;1.62;;;;;;;18.45;61.11;97807.38;4469251;32;20084;-81
2022/09/25 07:59:06;;;;;;;5.15;1.50;;;;;;;18.59;59.41;97809.72;4469330;32;20149;-80
2022/09/25 08:01:33;;;;;;;3.10;1.42;;;;;;;18.43;60.60;97809.28;4469165;32;20104;-80
2022/09/25 08:04:08;;;;;;;3.17;1.55;;;;;;;18.25;61.00;97808.91;4468744;32;20066;-80
2022/09/25 08:06:37;;;;;;;4.35;2.05;;;;;;;17.93;62.41;97814.84;4467835;32;20156;-80
2022/09/25 08:09:04;;;;;;;3.55;1.48;;;;;;;18.28;61.83;97815.69;4469676;32;20065;-80
2022/09/25 08:11:36;;;;;;;3.50;1.58;;;;;;;18.26;60.76;97807.13;4469785;32;20076;-80
2022/09/25 08:14:04;;;;;;;2.97;1.40;;;;;;;18.18;61.28;97812.94;4468208;32;20104;-80
2022/09/25 08:16:31;;;;;;;3.03;1.27;;;;;;;17.68;62.73;97816.78;4469885;32;20070;-80
2022/09/25 08:18:58;;;;;;;4.57;1.60;;;;;;;17.94;62.01;97810.44;4468584;32;20099;-80
2022/09/25 08:21:25;;;;;;;4.45;1.77;;;;;;;17.81;62.10;97823.59;4467670;32;20154;-81
2022/09/25 08:23:55;;;;;;;5.43;1.80;;;;;;;17.89;62.15;97823.03;4469115;32;20061;-80
2022/09/25 08:26:22;;;;;;;3.62;1.40;;;;;;;17.80;62.92;97823.72;4468869;32;20057;-80
2022/09/25 08:28:50;;;;;;;4.65;1.70;;;;;;;17.52;63.89;97824.91;4469029;32;20061;-81
2022/09/25 08:31:18;;;;;;;3.20;1.60;;;;;;;18.10;63.85;97828.41;4464553;32;20110;-81
2022/09/25 08:33:46;;;;;;;4.28;1.55;;;;;;;17.27;65.09;97825.91;4468034;32;20097;-81
2022/09/25 08:36:14;;;;;;;3.97;1.60;;;;;;;17.27;67.23;97824.13;4464163;32;20053;-81
2022/09/25 08:38:42;;;;;;;3.33;1.80;;;;;;;17.35;67.63;97832.22;4465798;32;20105;-81
2022/09/25 08:41:24;;;;;;;4.03;1.58;;;;;;;17.25;67.56;97836.44;4463798;32;20065;-81
2022/09/25 08:43:54;;;;;;;2.37;1.50;;;;;;;16.97;68.52;97844.59;4462414;32;20105;-81
2022/09/25 08:49:11;;;;;;;4.32;1.80;;;;;;;17.50;68.31;97834.63;4451641;32;20110;-81
2022/09/25 08:51:44;;;;;;;3.55;1.52;;;;;;;17.09;71.02;97842.88;4461591;32;20088;-81
2022/09/25 08:54:20;;;;;;;4.75;1.83;;;;;;;17.04;70.27;97841.44;4460383;32;20077;-81
2022/09/25 08:56:49;;;;;;;3.53;1.60;;;;;;;17.44;70.28;97838.53;4460015;32;20093;-81
2022/09/25 08:59:37;;;;;;;6.60;2.10;;;;;;;18.10;67.86;97838.84;4447145;32;20107;-81
2022/09/25 09:02:11;;;;;;;;;;;;;;;17.60;68.07;97841.66;4462445;32;20081;-80
2022/09/25 09:04:50;;;;;;;5.10;2.00;;;;;;;17.45;68.81;97837.59;4461138;32;19996;-81
2022/09/25 09:07:20;;;;;;;6.18;1.95;;;;;;;18.12;67.41;97840.38;4463821;32;20112;-81
2022/09/25 09:10:02;;;;;;;4.68;2.05;;;;;;;18.52;65.80;97841.69;4450580;32;20106;-81
2022/09/25 09:12:44;;;;;;;4.15;2.03;;;;;;;18.60;64.34;97840.12;4440381;32;20057;-81
2022/09/25 09:15:33;;;;;;;4.95;1.90;;;;;;;18.32;66.69;97844.06;4451674;32;20097;-81
2022/09/25 09:18:08;;;;;;;6.07;1.90;;;;;;;18.60;66.22;97841.91;4465047;32;20081;-81
2022/09/25 09:20:47;;;;;;;4.47;1.83;;;;;;;18.48;66.38;97833.25;4451361;32;20066;-81
2022/09/25 09:23:18;;;;;;;4.07;1.52;;;;;;;18.23;67.89;97834.31;4465120;32;20084;-81
2022/09/25 09:26:16;;;;;;;4.62;1.70;;;;;;;18.11;67.54;97833.50;4464665;32;20191;-81
2022/09/25 09:28:55;;;;;;;3.05;1.67;;;;;;;17.64;69.44;97837.03;4465285;32;20141;-80
2022/09/25 09:31:46;;;;;;;4.40;1.80;;;;;;;18.03;69.00;97835.84;4463176;32;20072;-80
2022/09/25 09:34:37;;;;;;;4.30;1.90;;;;;;;18.22;67.65;97837.88;4464212;32;20143;-81
2022/09/25 09:37:40;;;;;;;6.00;2.10;;;;;;;18.33;67.46;97834.44;4463940;32;20092;-80
2022/09/25 09:40:44;;;;;;;3.90;1.62;;;;;;;18.34;67.71;97834.31;4463227;32;20734;-81
2022/09/25 09:43:41;;;;;;;3.75;1.70;;;;;;;18.31;67.46;97828.53;4450385;32;20093;-80
2022/09/25 09:46:36;;;;;;;5.30;2.03;;;;;;;18.62;66.39;97830.41;4464669;32;20057;-81
2022/09/25 09:49:22;;;;;;;4.35;2.00;;;;;;;18.78;65.21;97825.62;4463522;32;20139;-80
2022/09/25 09:52:10;;;;;;;3.75;1.90;;;;;;;18.87;64.78;97831.09;4463291;32;20065;-80
2022/09/25 09:54:41;;;;;;;4.90;1.80;;;;;;;18.85;64.84;97836.44;4463085;32;20115;-80
2022/09/25 09:57:26;;;;;;;4.55;1.90;;;;;;;18.66;65.11;97821.37;4466340;32;20049;-81
2022/09/25 10:00:04;;;;;;;4.05;1.77;;;;;;;18.62;65.61;97822.56;4452584;32;20088;-81
2022/09/25 10:02:48;;;;;;;4.87;1.90;;;;;;;18.65;65.78;97819.72;4467482;32;20070;-81
2022/09/25 10:05:35;;;;;;;3.75;1.87;;;;;;;18.77;65.51;97818.75;4466123;32;20161;-81
2022/09/25 10:08:02;;;;;;;5.97;2.08;;;;;;;18.76;64.69;97821.50;4466903;32;20077;-81
2022/09/25 10:10:38;;;;;;;5.00;2.10;;;;;;;19.10;63.30;97824.84;4452804;32;20143;-81
2022/09/25 10:13:13;;;;;;;4.85;1.90;;;;;;;18.85;64.07;97819.94;4466704;32;20147;-81
2022/09/25 10:16:04;;;;;;;4.28;2.12;;;;;;;19.30;61.93;97810.97;4451330;32;20061;-81
2022/09/25 10:18:39;;;;;;;5.07;2.00;;;;;;;19.85;60.46;97808.22;4451996;32;20053;-81
2022/09/25 10:21:13;;;;;;;7.87;2.35;;;;;;;20.38;59.04;97808.03;4446548;32;20108;-81
2022/09/25 10:23:53;;;;;;;5.25;2.22;;;;;;;20.23;59.61;97804.97;4460990;32;20077;-80
2022/09/25 10:26:35;;;;;;;4.35;1.90;;;;;;;20.44;57.42;97803.16;4459405;32;20108;-80
2022/09/25 10:29:08;;;;;;;4.70;2.20;;;;;;;20.62;58.82;97798.06;4461755;32;20065;-81
2022/09/25 10:31:38;;;;;;;6.22;2.20;;;;;;;21.39;55.18;97794.75;4468761;32;20103;-81
2022/09/25 10:34:22;;;;;;;6.78;2.10;;;;;;;21.38;55.54;97795.72;4460951;32;20097;-80
2022/09/25 10:36:51;;;;;;;4.32;1.90;;;;;;;20.85;56.55;97803.09;4460165;32;20141;-80
2022/09/25 10:39:33;;;;;;;4.75;1.95;;;;;;;20.89;57.02;97804.47;4463657;32;20099;-81
2022/09/25 10:42:38;;;;;;;4.22;2.17;;;;;;;21.24;56.29;97799.53;4452475;32;20136;-81
2022/09/25 10:45:27;;;;;;;5.65;2.40;;;;;;;21.44;55.38;97799.56;4464277;32;20126;-81
2022/09/25 10:50:41;;;;;;;5.00;2.10;;;;;;;21.79;53.75;97807.66;4463634;32;20096;-81
2022/09/25 10:53:27;;;;;;;3.53;1.77;;;;;;;21.10;55.15;97805.19;4464228;32;20076;-81
2022/09/25 10:56:04;;;;;;;4.43;1.80;;;;;;;20.67;57.05;97813.41;4463785;32;20763;-81
2022/09/25 10:58:37;;;;;;;4.12;1.80;;;;;;;20.74;56.46;97811.91;4461028;32;20087;-81
2022/09/25 11:01:04;;;;;;;5.35;1.90;;;;;;;20.94;56.48;97805.72;4448271;32;20084;-81
2022/09/25 11:03:33;;;;;;;5.50;2.10;;;;;;;20.97;55.98;97796.78;4448723;32;20080;-81
2022/09/25 11:06:08;;;;;;;3.92;2.05;;;;;;;20.93;55.71;97792.75;4462271;32;20062;-81
2022/09/25 11:08:40;;;;;;;4.20;2.00;;;;;;;20.76;56.57;97792.47;4461771;32;20073;-81
2022/09/25 11:11:08;;;;;;;3.80;1.98;;;;;;;20.82;56.55;97793.69;4448070;32;20078;-81
2022/09/25 11:13:59;;;;;;;4.75;2.20;;;;;;;20.77;57.01;97793.28;4461664;32;20065;-81
2022/09/25 11:16:45;;;;;;;5.45;2.10;;;;;;;21.28;56.03;97793.09;4463078;32;20070;-81
2022/09/25 11:19:30;;;;;;;5.68;2.08;;;;;;;21.24;55.78;97789.03;4466018;32;20087;-81
2022/09/25 11:22:11;;;;;;;5.40;2.50;;;;;;;21.08;56.86;97794.03;4466006;32;20053;-81
2022/09/25 11:25:00;;;;;;;5.55;2.30;;;;;;;20.10;59.85;97794.72;4452104;32;20100;-81
2022/09/25 11:27:34;;;;;;;5.35;2.40;;;;;;;19.87;60.60;97795.81;4466227;32;20080;-81
2022/09/25 11:30:17;;;;;;;5.60;2.30;;;;;;;19.29;62.49;97784.94;4449554;32;20097;-81
2022/09/25 11:33:03;;;;;;;4.97;2.08;;;;;;;19.59;62.63;97784.22;4451769;32;20061;-81
2022/09/25 11:35:50;;;;;;;4.90;2.30;;;;;;;19.85;61.83;97785.47;4453206;32;20069;-81
2022/09/25 11:41:47;;;;;;;7.53;2.72;;;;;;;19.62;62.68;97787.41;4467195;32;20081;-81
2022/09/25 11:44:38;;;;;;;5.70;2.28;;;;;;;19.41;63.74;97778.69;4467362;32;20085;-81
2022/09/25 11:47:26;;;;;;;6.07;2.47;;;;;;;19.67;64.65;97786.19;4454735;32;20089;-82
2022/09/25 11:49:53;;;;;;;6.25;2.83;;;;;;;19.54;65.85;97787.19;4451359;32;20080;-81
2022/09/25 11:52:36;;;;;;;7.40;2.40;;;;;;;19.49;66.65;97785.91;4464487;32;20097;-81
2022/09/25 11:55:14;;;;;;;5.12;2.42;;;;;;;19.14;68.07;97778.34;4465040;32;20053;-80
2022/09/25 11:57:44;;;;;;;6.10;2.22;;;;;;;19.05;70.72;97782.56;4453399;32;20112;-81
2022/09/25 12:00:46;;;;;;;4.60;2.22;;;;;;;19.16;69.91;97781.69;4465689;32;20104;-81
2022/09/25 12:03:34;;;;;;;4.53;2.28;;;;;;;19.03;71.67;97779.22;4467502;32;20108;-81
2022/09/25 12:06:22;;;;;;;6.03;2.60;;;;;;;19.18;69.34;97777.16;4453700;32;20081;-81
2022/09/25 12:09:09;;;;;;;5.62;2.50;;;;;;;19.30;68.10;97773.53;4467731;32;20089;-81
2022/09/25 12:12:00;;;;;;;5.87;2.30;;;;;;;19.43;66.73;97768.09;4467475;32;20107;-81
2022/09/25 12:14:48;;;;;;;6.47;2.62;;;;;;;19.44;67.40;97767.13;4466883;32;20111;-81
2022/09/25 12:17:18;;;;;;;;;;;;;;;19.45;67.21;97766.19;4467903;32;20085;-81
2022/09/25 12:20:07;;;;;;;4.47;2.22;;;;;;;19.47;66.02;97759.87;4466877;32;20007;-81